sensor_id;sensor_type;location;lat;lon;timestamp;P1;durP1;ratioP1;P2;durP2;ratioP2
11598;SDS011;5855;48.840;9.188;2023-08-20T00:00:56;10.00;;;9.05;;
11598;SDS011;5855;48.840;9.188;2023-08-20T00:03:23;10.82;;;8.98;;
11598;SDS011;5855;48.840;9.188;2023-08-20T00:05:50;9.55;;;8.65;;
11598;SDS011;5855;48.840;9.188;2023-08-20T00:08:18;9.45;;;8.45;;
11598;SDS011;5855;48.840;9.188;2023-08-20T00:10:46;10.13;;;9.13;;
11598;SDS011;5855;48.840;9.188;2023-08-20T00:13:13;9.40;;;8.40;;
11598;SDS011;5855;48.840;9.188;2023-08-20T00:15:40;9.32;;;8.43;;
11598;SDS011;5855;48.840;9.188;2023-08-20T00:18:07;11.35;;;9.32;;
11598;SDS011;5855;48.840;9.188;2023-08-20T00:20:35;12.52;;;9.23;;
11598;SDS011;5855;48.840;9.188;2023-08-20T00:23:03;12.45;;;9.90;;
11598;SDS011;5855;48.840;9.188;2023-08-20T00:25:31;10.55;;;9.43;;
11598;SDS011;5855;48.840;9.188;2023-08-20T00:27:59;10.63;;;8.88;;
11598;SDS011;5855;48.840;9.188;2023-08-20T00:30:26;9.00;;;8.00;;
11598;SDS011;5855;48.840;9.188;2023-08-20T00:32:53;10.05;;;8.98;;
11598;SDS011;5855;48.840;9.188;2023-08-20T00:35:19;9.82;;;8.82;;
11598;SDS011;5855;48.840;9.188;2023-08-20T00:37:46;9.70;;;8.80;;
11598;SDS011;5855;48.840;9.188;2023-08-20T00:40:13;9.30;;;8.32;;
11598;SDS011;5855;48.840;9.188;2023-08-20T00:42:40;11.88;;;8.50;;
11598;SDS011;5855;48.840;9.188;2023-08-20T00:45:08;10.07;;;9.07;;
11598;SDS011;5855;48.840;9.188;2023-08-20T00:47:35;11.20;;;8.93;;
11598;SDS011;5855;48.840;9.188;2023-08-20T00:50:03;9.60;;;8.70;;
11598;SDS011;5855;48.840;9.188;2023-08-20T00:52:31;9.85;;;8.82;;
11598;SDS011;5855;48.840;9.188;2023-08-20T00:54:58;9.68;;;8.68;;
11598;SDS011;5855;48.840;9.188;2023-08-20T00:57:26;10.27;;;8.85;;
11598;SDS011;5855;48.840;9.188;2023-08-20T00:59:53;9.65;;;8.65;;
11598;SDS011;5855;48.840;9.188;2023-08-20T01:02:23;9.38;;;8.40;;
11598;SDS011;5855;48.840;9.188;2023-08-20T01:04:50;12.48;;;9.02;;
11598;SDS011;5855;48.840;9.188;2023-08-20T01:07:18;9.43;;;8.50;;
11598;SDS011;5855;48.840;9.188;2023-08-20T01:09:53;11.35;;;8.63;;
11598;SDS011;5855;48.840;9.188;2023-08-20T01:12:27;10.48;;;8.60;;
11598;SDS011;5855;48.840;9.188;2023-08-20T01:14:55;9.60;;;8.70;;
11598;SDS011;5855;48.840;9.188;2023-08-20T01:17:23;11.07;;;8.80;;
11598;SDS011;5855;48.840;9.188;2023-08-20T01:19:50;10.63;;;9.52;;
11598;SDS011;5855;48.840;9.188;2023-08-20T01:22:23;12.10;;;9.30;;
11598;SDS011;5855;48.840;9.188;2023-08-20T01:25:12;9.77;;;8.75;;
11598;SDS011;5855;48.840;9.188;2023-08-20T01:27:51;11.55;;;8.57;;
11598;SDS011;5855;48.840;9.188;2023-08-20T01:30:25;8.82;;;8.00;;
11598;SDS011;5855;48.840;9.188;2023-08-20T01:32:53;10.68;;;8.60;;
11598;SDS011;5855;48.840;9.188;2023-08-20T01:35:20;9.85;;;8.82;;
11598;SDS011;5855;48.840;9.188;2023-08-20T01:37:51;10.00;;;8.82;;
11598;SDS011;5855;48.840;9.188;2023-08-20T01:40:18;8.90;;;8.10;;
11598;SDS011;5855;48.840;9.188;2023-08-20T01:42:45;8.68;;;7.93;;
11598;SDS011;5855;48.840;9.188;2023-08-20T01:45:12;10.55;;;8.43;;
11598;SDS011;5855;48.840;9.188;2023-08-20T01:47:40;9.20;;;8.30;;
11598;SDS011;5855;48.840;9.188;2023-08-20T01:50:08;9.65;;;8.65;;
11598;SDS011;5855;48.840;9.188;2023-08-20T01:52:36;9.63;;;8.32;;
11598;SDS011;5855;48.840;9.188;2023-08-20T01:55:03;9.73;;;8.38;;
11598;SDS011;5855;48.840;9.188;2023-08-20T01:57:30;9.60;;;8.70;;
11598;SDS011;5855;48.840;9.188;2023-08-20T01:59:57;10.05;;;8.60;;
11598;SDS011;5855;48.840;9.188;2023-08-20T02:02:24;9.90;;;8.43;;
11598;SDS011;5855;48.840;9.188;2023-08-20T02:04:52;9.90;;;8.98;;
11598;SDS011;5855;48.840;9.188;2023-08-20T02:07:19;12.45;;;9.70;;
11598;SDS011;5855;48.840;9.188;2023-08-20T02:09:46;9.88;;;8.88;;
11598;SDS011;5855;48.840;9.188;2023-08-20T02:12:13;9.57;;;8.40;;
11598;SDS011;5855;48.840;9.188;2023-08-20T02:14:40;9.93;;;8.95;;
11598;SDS011;5855;48.840;9.188;2023-08-20T02:17:07;9.82;;;8.93;;
11598;SDS011;5855;48.840;9.188;2023-08-20T02:19:34;10.95;;;9.68;;
11598;SDS011;5855;48.840;9.188;2023-08-20T02:22:02;10.80;;;8.50;;
11598;SDS011;5855;48.840;9.188;2023-08-20T02:24:29;9.65;;;8.73;;
11598;SDS011;5855;48.840;9.188;2023-08-20T02:26:56;8.73;;;7.93;;
11598;SDS011;5855;48.840;9.188;2023-08-20T02:29:23;9.30;;;8.50;;
11598;SDS011;5855;48.840;9.188;2023-08-20T02:31:50;8.63;;;7.82;;
11598;SDS011;5855;48.840;9.188;2023-08-20T02:34:16;8.77;;;8.07;;
11598;SDS011;5855;48.840;9.188;2023-08-20T02:36:43;9.32;;;8.38;;
11598;SDS011;5855;48.840;9.188;2023-08-20T02:39:13;9.32;;;8.52;;
11598;SDS011;5855;48.840;9.188;2023-08-20T02:41:42;9.43;;;8.45;;
11598;SDS011;5855;48.840;9.188;2023-08-20T02:44:08;10.90;;;8.30;;
11598;SDS011;5855;48.840;9.188;2023-08-20T02:46:35;9.85;;;8.30;;
11598;SDS011;5855;48.840;9.188;2023-08-20T02:49:03;11.60;;;8.95;;
11598;SDS011;5855;48.840;9.188;2023-08-20T02:51:30;9.70;;;8.65;;
11598;SDS011;5855;48.840;9.188;2023-08-20T02:53:56;10.48;;;9.18;;
11598;SDS011;5855;48.840;9.188;2023-08-20T02:56:25;9.68;;;8.52;;
11598;SDS011;5855;48.840;9.188;2023-08-20T02:58:51;9.35;;;8.45;;
11598;SDS011;5855;48.840;9.188;2023-08-20T03:01:18;8.50;;;7.55;;
11598;SDS011;5855;48.840;9.188;2023-08-20T03:03:46;9.65;;;8.73;;
11598;SDS011;5855;48.840;9.188;2023-08-20T03:06:13;9.63;;;8.48;;
11598;SDS011;5855;48.840;9.188;2023-08-20T03:08:39;10.32;;;8.35;;
11598;SDS011;5855;48.840;9.188;2023-08-20T03:11:06;10.05;;;8.77;;
11598;SDS011;5855;48.840;9.188;2023-08-20T03:13:34;9.10;;;8.30;;
11598;SDS011;5855;48.840;9.188;2023-08-20T03:16:01;9.77;;;8.95;;
11598;SDS011;5855;48.840;9.188;2023-08-20T03:18:28;10.73;;;8.82;;
11598;SDS011;5855;48.840;9.188;2023-08-20T03:20:55;10.93;;;9.93;;
11598;SDS011;5855;48.840;9.188;2023-08-20T03:23:23;9.85;;;8.88;;
11598;SDS011;5855;48.840;9.188;2023-08-20T03:25:50;10.90;;;9.80;;
11598;SDS011;5855;48.840;9.188;2023-08-20T03:28:17;10.20;;;9.27;;
11598;SDS011;5855;48.840;9.188;2023-08-20T03:30:46;10.70;;;9.70;;
11598;SDS011;5855;48.840;9.188;2023-08-20T03:33:12;10.35;;;9.30;;
11598;SDS011;5855;48.840;9.188;2023-08-20T03:35:40;11.07;;;9.88;;
11598;SDS011;5855;48.840;9.188;2023-08-20T03:38:06;9.70;;;8.65;;
11598;SDS011;5855;48.840;9.188;2023-08-20T03:40:33;9.90;;;8.90;;
11598;SDS011;5855;48.840;9.188;2023-08-20T03:43:00;9.65;;;8.68;;
11598;SDS011;5855;48.840;9.188;2023-08-20T03:45:27;10.35;;;9.45;;
11598;SDS011;5855;48.840;9.188;2023-08-20T03:47:56;12.27;;;9.30;;
11598;SDS011;5855;48.840;9.188;2023-08-20T03:50:23;12.73;;;8.68;;
11598;SDS011;5855;48.840;9.188;2023-08-20T03:52:50;9.95;;;8.95;;
11598;SDS011;5855;48.840;9.188;2023-08-20T03:55:16;11.32;;;8.93;;
11598;SDS011;5855;48.840;9.188;2023-08-20T03:57:43;10.38;;;9.25;;
11598;SDS011;5855;48.840;9.188;2023-08-20T04:00:10;10.77;;;9.75;;
11598;SDS011;5855;48.840;9.188;2023-08-20T04:02:38;10.77;;;9.68;;
11598;SDS011;5855;48.840;9.188;2023-08-20T04:05:07;11.05;;;9.40;;
11598;SDS011;5855;48.840;9.188;2023-08-20T04:07:34;12.70;;;10.57;;
11598;SDS011;5855;48.840;9.188;2023-08-20T04:10:01;11.32;;;10.20;;
11598;SDS011;5855;48.840;9.188;2023-08-20T04:12:28;10.80;;;9.60;;
11598;SDS011;5855;48.840;9.188;2023-08-20T04:14:55;11.65;;;10.55;;
11598;SDS011;5855;48.840;9.188;2023-08-20T04:17:22;11.88;;;10.68;;
11598;SDS011;5855;48.840;9.188;2023-08-20T04:19:49;10.45;;;9.45;;
11598;SDS011;5855;48.840;9.188;2023-08-20T04:22:17;11.15;;;9.68;;
11598;SDS011;5855;48.840;9.188;2023-08-20T04:24:44;10.25;;;9.32;;
11598;SDS011;5855;48.840;9.188;2023-08-20T04:27:11;10.48;;;9.43;;
11598;SDS011;5855;48.840;9.188;2023-08-20T04:29:38;10.75;;;9.77;;
11598;SDS011;5855;48.840;9.188;2023-08-20T04:32:04;10.32;;;9.32;;
11598;SDS011;5855;48.840;9.188;2023-08-20T04:34:31;11.20;;;10.10;;
11598;SDS011;5855;48.840;9.188;2023-08-20T04:36:58;11.18;;;10.18;;
11598;SDS011;5855;48.840;9.188;2023-08-20T04:39:26;10.73;;;9.65;;
11598;SDS011;5855;48.840;9.188;2023-08-20T04:41:53;11.10;;;10.10;;
11598;SDS011;5855;48.840;9.188;2023-08-20T04:44:22;11.27;;;9.98;;
11598;SDS011;5855;48.840;9.188;2023-08-20T04:46:49;11.10;;;10.10;;
11598;SDS011;5855;48.840;9.188;2023-08-20T04:49:16;10.82;;;9.55;;
11598;SDS011;5855;48.840;9.188;2023-08-20T04:51:43;9.63;;;8.73;;
11598;SDS011;5855;48.840;9.188;2023-08-20T04:54:10;9.43;;;8.52;;
11598;SDS011;5855;48.840;9.188;2023-08-20T04:56:38;10.48;;;9.48;;
11598;SDS011;5855;48.840;9.188;2023-08-20T04:59:04;12.18;;;9.88;;
11598;SDS011;5855;48.840;9.188;2023-08-20T05:01:31;10.13;;;9.13;;
11598;SDS011;5855;48.840;9.188;2023-08-20T05:03:58;10.68;;;9.52;;
11598;SDS011;5855;48.840;9.188;2023-08-20T05:06:25;12.07;;;10.40;;
11598;SDS011;5855;48.840;9.188;2023-08-20T05:08:51;11.10;;;10.10;;
11598;SDS011;5855;48.840;9.188;2023-08-20T05:11:18;11.27;;;10.07;;
11598;SDS011;5855;48.840;9.188;2023-08-20T05:13:46;11.68;;;10.57;;
11598;SDS011;5855;48.840;9.188;2023-08-20T05:16:13;11.23;;;10.23;;
11598;SDS011;5855;48.840;9.188;2023-08-20T05:18:40;11.25;;;10.25;;
11598;SDS011;5855;48.840;9.188;2023-08-20T05:21:08;11.65;;;10.45;;
11598;SDS011;5855;48.840;9.188;2023-08-20T05:23:38;10.85;;;9.85;;
11598;SDS011;5855;48.840;9.188;2023-08-20T05:26:05;10.82;;;9.73;;
11598;SDS011;5855;48.840;9.188;2023-08-20T05:28:32;10.95;;;9.88;;
11598;SDS011;5855;48.840;9.188;2023-08-20T05:31:00;13.18;;;10.50;;
11598;SDS011;5855;48.840;9.188;2023-08-20T05:33:27;11.13;;;10.02;;
11598;SDS011;5855;48.840;9.188;2023-08-20T05:35:54;12.15;;;10.50;;
11598;SDS011;5855;48.840;9.188;2023-08-20T05:38:21;11.23;;;10.23;;
11598;SDS011;5855;48.840;9.188;2023-08-20T05:40:48;14.73;;;11.52;;
11598;SDS011;5855;48.840;9.188;2023-08-20T05:43:15;11.95;;;10.73;;
11598;SDS011;5855;48.840;9.188;2023-08-20T05:45:42;11.35;;;10.25;;
11598;SDS011;5855;48.840;9.188;2023-08-20T05:48:10;11.45;;;10.27;;
11598;SDS011;5855;48.840;9.188;2023-08-20T05:50:37;11.40;;;10.27;;
11598;SDS011;5855;48.840;9.188;2023-08-20T05:53:03;12.05;;;10.85;;
11598;SDS011;5855;48.840;9.188;2023-08-20T05:55:30;11.85;;;10.63;;
11598;SDS011;5855;48.840;9.188;2023-08-20T05:57:57;11.20;;;10.20;;
11598;SDS011;5855;48.840;9.188;2023-08-20T06:00:24;11.48;;;10.48;;
11598;SDS011;5855;48.840;9.188;2023-08-20T06:02:51;13.07;;;10.13;;
11598;SDS011;5855;48.840;9.188;2023-08-20T06:05:19;11.65;;;10.50;;
11598;SDS011;5855;48.840;9.188;2023-08-20T06:07:46;11.43;;;9.80;;
11598;SDS011;5855;48.840;9.188;2023-08-20T06:10:12;10.48;;;9.48;;
11598;SDS011;5855;48.840;9.188;2023-08-20T06:12:39;12.07;;;10.13;;
11598;SDS011;5855;48.840;9.188;2023-08-20T06:15:07;11.43;;;10.25;;
11598;SDS011;5855;48.840;9.188;2023-08-20T06:17:34;10.18;;;9.27;;
11598;SDS011;5855;48.840;9.188;2023-08-20T06:20:01;12.95;;;9.45;;
11598;SDS011;5855;48.840;9.188;2023-08-20T06:22:33;11.05;;;9.95;;
11598;SDS011;5855;48.840;9.188;2023-08-20T06:25:00;11.23;;;9.63;;
11598;SDS011;5855;48.840;9.188;2023-08-20T06:27:28;9.93;;;8.93;;
11598;SDS011;5855;48.840;9.188;2023-08-20T06:29:55;10.70;;;9.23;;
11598;SDS011;5855;48.840;9.188;2023-08-20T06:32:22;11.27;;;9.68;;
11598;SDS011;5855;48.840;9.188;2023-08-20T06:34:49;12.10;;;9.65;;
11598;SDS011;5855;48.840;9.188;2023-08-20T06:37:16;10.10;;;9.15;;
11598;SDS011;5855;48.840;9.188;2023-08-20T06:39:44;10.18;;;9.02;;
11598;SDS011;5855;48.840;9.188;2023-08-20T06:42:11;10.82;;;8.07;;
11598;SDS011;5855;48.840;9.188;2023-08-20T06:44:39;10.63;;;9.35;;
11598;SDS011;5855;48.840;9.188;2023-08-20T06:47:06;9.73;;;8.82;;
11598;SDS011;5855;48.840;9.188;2023-08-20T06:49:33;10.30;;;9.27;;
11598;SDS011;5855;48.840;9.188;2023-08-20T06:52:00;10.13;;;8.55;;
11598;SDS011;5855;48.840;9.188;2023-08-20T06:54:26;10.27;;;9.25;;
11598;SDS011;5855;48.840;9.188;2023-08-20T06:56:54;9.18;;;8.25;;
11598;SDS011;5855;48.840;9.188;2023-08-20T06:59:21;10.43;;;8.85;;
11598;SDS011;5855;48.840;9.188;2023-08-20T07:01:49;11.00;;;9.50;;
11598;SDS011;5855;48.840;9.188;2023-08-20T07:04:15;10.25;;;8.50;;
11598;SDS011;5855;48.840;9.188;2023-08-20T07:06:42;10.38;;;9.38;;
11598;SDS011;5855;48.840;9.188;2023-08-20T07:09:09;10.38;;;8.95;;
11598;SDS011;5855;48.840;9.188;2023-08-20T07:11:36;13.73;;;9.25;;
11598;SDS011;5855;48.840;9.188;2023-08-20T07:14:04;9.57;;;7.68;;
11598;SDS011;5855;48.840;9.188;2023-08-20T07:16:31;9.60;;;8.05;;
11598;SDS011;5855;48.840;9.188;2023-08-20T07:18:58;10.55;;;7.63;;
11598;SDS011;5855;48.840;9.188;2023-08-20T07:21:25;8.90;;;7.97;;
11598;SDS011;5855;48.840;9.188;2023-08-20T07:23:52;9.93;;;8.88;;
11598;SDS011;5855;48.840;9.188;2023-08-20T07:26:18;7.90;;;7.20;;
11598;SDS011;5855;48.840;9.188;2023-08-20T07:28:45;11.20;;;8.02;;
11598;SDS011;5855;48.840;9.188;2023-08-20T07:31:26;10.25;;;7.85;;
11598;SDS011;5855;48.840;9.188;2023-08-20T07:33:54;9.02;;;7.47;;
11598;SDS011;5855;48.840;9.188;2023-08-20T07:36:22;8.95;;;8.05;;
11598;SDS011;5855;48.840;9.188;2023-08-20T07:38:50;10.07;;;7.65;;
11598;SDS011;5855;48.840;9.188;2023-08-20T07:41:17;11.10;;;7.68;;
11598;SDS011;5855;48.840;9.188;2023-08-20T07:43:46;8.35;;;7.45;;
11598;SDS011;5855;48.840;9.188;2023-08-20T07:46:13;9.10;;;7.22;;
11598;SDS011;5855;48.840;9.188;2023-08-20T07:48:42;11.82;;;7.10;;
11598;SDS011;5855;48.840;9.188;2023-08-20T07:51:09;10.55;;;8.25;;
11598;SDS011;5855;48.840;9.188;2023-08-20T07:53:36;12.63;;;8.40;;
11598;SDS011;5855;48.840;9.188;2023-08-20T07:56:02;8.68;;;6.90;;
11598;SDS011;5855;48.840;9.188;2023-08-20T07:58:30;8.30;;;6.90;;
11598;SDS011;5855;48.840;9.188;2023-08-20T08:00:57;10.32;;;8.32;;
11598;SDS011;5855;48.840;9.188;2023-08-20T08:03:24;9.60;;;7.05;;
11598;SDS011;5855;48.840;9.188;2023-08-20T08:05:53;9.63;;;7.95;;
11598;SDS011;5855;48.840;9.188;2023-08-20T08:08:20;7.43;;;6.70;;
11598;SDS011;5855;48.840;9.188;2023-08-20T08:10:48;11.20;;;8.07;;
11598;SDS011;5855;48.840;9.188;2023-08-20T08:13:15;9.55;;;8.10;;
11598;SDS011;5855;48.840;9.188;2023-08-20T08:15:44;8.45;;;7.55;;
11598;SDS011;5855;48.840;9.188;2023-08-20T08:18:11;7.50;;;6.80;;
11598;SDS011;5855;48.840;9.188;2023-08-20T08:20:38;10.20;;;8.32;;
11598;SDS011;5855;48.840;9.188;2023-08-20T08:23:06;9.95;;;8.93;;
11598;SDS011;5855;48.840;9.188;2023-08-20T08:25:32;9.85;;;7.68;;
11598;SDS011;5855;48.840;9.188;2023-08-20T08:27:59;9.07;;;7.60;;
11598;SDS011;5855;48.840;9.188;2023-08-20T08:30:26;10.32;;;7.80;;
11598;SDS011;5855;48.840;9.188;2023-08-20T08:32:54;13.77;;;8.30;;
11598;SDS011;5855;48.840;9.188;2023-08-20T08:35:21;6.78;;;6.20;;
11598;SDS011;5855;48.840;9.188;2023-08-20T08:37:48;9.70;;;7.00;;
11598;SDS011;5855;48.840;9.188;2023-08-20T08:40:16;8.52;;;7.72;;
11598;SDS011;5855;48.840;9.188;2023-08-20T08:42:43;12.48;;;7.93;;
11598;SDS011;5855;48.840;9.188;2023-08-20T08:45:14;9.18;;;7.38;;
11598;SDS011;5855;48.840;9.188;2023-08-20T08:47:43;9.10;;;7.43;;
11598;SDS011;5855;48.840;9.188;2023-08-20T08:50:10;8.82;;;6.82;;
11598;SDS011;5855;48.840;9.188;2023-08-20T08:52:38;7.60;;;6.32;;
11598;SDS011;5855;48.840;9.188;2023-08-20T08:55:06;11.85;;;7.53;;
11598;SDS011;5855;48.840;9.188;2023-08-20T08:57:36;9.20;;;6.65;;
11598;SDS011;5855;48.840;9.188;2023-08-20T09:00:03;7.18;;;5.97;;
11598;SDS011;5855;48.840;9.188;2023-08-20T09:02:33;8.52;;;6.57;;
11598;SDS011;5855;48.840;9.188;2023-08-20T09:05:00;9.45;;;6.25;;
11598;SDS011;5855;48.840;9.188;2023-08-20T09:07:27;7.22;;;5.82;;
11598;SDS011;5855;48.840;9.188;2023-08-20T09:09:57;6.45;;;5.88;;
11598;SDS011;5855;48.840;9.188;2023-08-20T09:12:25;6.05;;;5.45;;
11598;SDS011;5855;48.840;9.188;2023-08-20T09:14:54;6.75;;;5.85;;
11598;SDS011;5855;48.840;9.188;2023-08-20T09:17:25;7.13;;;6.43;;
11598;SDS011;5855;48.840;9.188;2023-08-20T09:19:53;7.57;;;6.10;;
11598;SDS011;5855;48.840;9.188;2023-08-20T09:22:22;9.20;;;6.75;;
11598;SDS011;5855;48.840;9.188;2023-08-20T09:24:52;8.52;;;6.43;;
11598;SDS011;5855;48.840;9.188;2023-08-20T09:27:20;8.10;;;6.40;;
11598;SDS011;5855;48.840;9.188;2023-08-20T09:29:48;6.93;;;6.00;;
11598;SDS011;5855;48.840;9.188;2023-08-20T09:32:18;7.40;;;6.45;;
11598;SDS011;5855;48.840;9.188;2023-08-20T09:34:47;6.97;;;6.13;;
11598;SDS011;5855;48.840;9.188;2023-08-20T09:37:14;6.95;;;6.13;;
11598;SDS011;5855;48.840;9.188;2023-08-20T09:39:42;8.25;;;5.80;;
11598;SDS011;5855;48.840;9.188;2023-08-20T09:42:09;6.65;;;6.05;;
11598;SDS011;5855;48.840;9.188;2023-08-20T09:44:38;6.88;;;5.35;;
11598;SDS011;5855;48.840;9.188;2023-08-20T09:47:06;6.30;;;5.53;;
11598;SDS011;5855;48.840;9.188;2023-08-20T09:49:37;7.10;;;5.00;;
11598;SDS011;5855;48.840;9.188;2023-08-20T09:52:06;6.80;;;5.15;;
11598;SDS011;5855;48.840;9.188;2023-08-20T09:54:40;6.43;;;5.30;;
11598;SDS011;5855;48.840;9.188;2023-08-20T09:57:19;6.32;;;5.20;;
11598;SDS011;5855;48.840;9.188;2023-08-20T09:59:52;6.03;;;4.63;;
11598;SDS011;5855;48.840;9.188;2023-08-20T10:02:19;5.50;;;4.93;;
11598;SDS011;5855;48.840;9.188;2023-08-20T10:04:47;7.95;;;4.75;;
11598;SDS011;5855;48.840;9.188;2023-08-20T10:07:16;5.50;;;4.95;;
11598;SDS011;5855;48.840;9.188;2023-08-20T10:09:43;5.82;;;4.50;;
11598;SDS011;5855;48.840;9.188;2023-08-20T10:12:12;6.22;;;4.90;;
11598;SDS011;5855;48.840;9.188;2023-08-20T10:14:39;8.57;;;4.82;;
11598;SDS011;5855;48.840;9.188;2023-08-20T10:17:07;5.15;;;4.65;;
11598;SDS011;5855;48.840;9.188;2023-08-20T10:19:35;4.55;;;4.15;;
11598;SDS011;5855;48.840;9.188;2023-08-20T10:22:04;5.97;;;4.90;;
11598;SDS011;5855;48.840;9.188;2023-08-20T10:24:44;5.78;;;4.47;;
11598;SDS011;5855;48.840;9.188;2023-08-20T10:27:23;8.63;;;4.18;;
11598;SDS011;5855;48.840;9.188;2023-08-20T10:29:52;6.47;;;5.40;;
11598;SDS011;5855;48.840;9.188;2023-08-20T10:32:19;8.00;;;4.40;;
11598;SDS011;5855;48.840;9.188;2023-08-20T10:34:49;7.85;;;7.15;;
11598;SDS011;5855;48.840;9.188;2023-08-20T10:37:25;6.88;;;4.72;;
11598;SDS011;5855;48.840;9.188;2023-08-20T10:39:53;5.75;;;4.30;;
11598;SDS011;5855;48.840;9.188;2023-08-20T10:42:23;6.00;;;4.65;;
11598;SDS011;5855;48.840;9.188;2023-08-20T10:44:58;4.72;;;4.30;;
11598;SDS011;5855;48.840;9.188;2023-08-20T10:47:35;4.95;;;3.83;;
11598;SDS011;5855;48.840;9.188;2023-08-20T10:50:15;4.80;;;3.85;;
11598;SDS011;5855;48.840;9.188;2023-08-20T10:52:47;5.38;;;3.70;;
11598;SDS011;5855;48.840;9.188;2023-08-20T10:55:15;6.60;;;4.10;;
11598;SDS011;5855;48.840;9.188;2023-08-20T10:57:42;5.20;;;4.40;;
11598;SDS011;5855;48.840;9.188;2023-08-20T11:00:09;6.38;;;5.18;;
11598;SDS011;5855;48.840;9.188;2023-08-20T11:02:42;6.07;;;4.20;;
11598;SDS011;5855;48.840;9.188;2023-08-20T11:05:15;7.15;;;5.78;;
11598;SDS011;5855;48.840;9.188;2023-08-20T11:07:44;7.28;;;4.50;;
11598;SDS011;5855;48.840;9.188;2023-08-20T11:10:14;5.53;;;4.70;;
11598;SDS011;5855;48.840;9.188;2023-08-20T11:12:42;5.53;;;3.72;;
11598;SDS011;5855;48.840;9.188;2023-08-20T11:15:09;5.45;;;3.38;;
11598;SDS011;5855;48.840;9.188;2023-08-20T11:17:40;4.32;;;3.67;;
11598;SDS011;5855;48.840;9.188;2023-08-20T11:20:08;3.40;;;3.10;;
11598;SDS011;5855;48.840;9.188;2023-08-20T11:22:36;4.10;;;3.40;;
11598;SDS011;5855;48.840;9.188;2023-08-20T11:25:05;6.72;;;3.15;;
11598;SDS011;5855;48.840;9.188;2023-08-20T11:27:36;3.60;;;3.15;;
11598;SDS011;5855;48.840;9.188;2023-08-20T11:30:06;4.93;;;3.42;;
11598;SDS011;5855;48.840;9.188;2023-08-20T11:32:34;5.45;;;3.40;;
11598;SDS011;5855;48.840;9.188;2023-08-20T11:35:01;3.50;;;3.08;;
11598;SDS011;5855;48.840;9.188;2023-08-20T11:37:28;4.32;;;3.00;;
11598;SDS011;5855;48.840;9.188;2023-08-20T11:39:55;4.60;;;3.10;;
11598;SDS011;5855;48.840;9.188;2023-08-20T11:42:23;3.85;;;2.97;;
11598;SDS011;5855;48.840;9.188;2023-08-20T11:44:51;6.43;;;3.00;;
11598;SDS011;5855;48.840;9.188;2023-08-20T11:47:22;3.50;;;2.97;;
11598;SDS011;5855;48.840;9.188;2023-08-20T11:49:56;4.57;;;2.80;;
11598;SDS011;5855;48.840;9.188;2023-08-20T11:52:30;4.95;;;2.95;;
11598;SDS011;5855;48.840;9.188;2023-08-20T11:54:57;3.92;;;2.85;;
11598;SDS011;5855;48.840;9.188;2023-08-20T11:57:25;3.13;;;2.83;;
11598;SDS011;5855;48.840;9.188;2023-08-20T11:59:52;3.15;;;2.50;;
11598;SDS011;5855;48.840;9.188;2023-08-20T12:02:24;2.80;;;2.50;;
11598;SDS011;5855;48.840;9.188;2023-08-20T12:04:52;3.22;;;2.55;;
11598;SDS011;5855;48.840;9.188;2023-08-20T12:07:24;4.53;;;2.50;;
11598;SDS011;5855;48.840;9.188;2023-08-20T12:09:51;4.72;;;2.38;;
11598;SDS011;5855;48.840;9.188;2023-08-20T12:12:19;3.42;;;2.53;;
11598;SDS011;5855;48.840;9.188;2023-08-20T12:14:47;3.13;;;2.65;;
11598;SDS011;5855;48.840;9.188;2023-08-20T12:17:16;6.25;;;3.08;;
11598;SDS011;5855;48.840;9.188;2023-08-20T12:19:43;2.55;;;2.35;;
11598;SDS011;5855;48.840;9.188;2023-08-20T12:22:10;5.85;;;2.55;;
11598;SDS011;5855;48.840;9.188;2023-08-20T12:24:37;2.92;;;2.63;;
11598;SDS011;5855;48.840;9.188;2023-08-20T12:27:03;3.08;;;2.67;;
11598;SDS011;5855;48.840;9.188;2023-08-20T12:29:30;3.50;;;2.60;;
11598;SDS011;5855;48.840;9.188;2023-08-20T12:31:59;5.15;;;2.80;;
11598;SDS011;5855;48.840;9.188;2023-08-20T12:34:26;4.03;;;2.38;;
11598;SDS011;5855;48.840;9.188;2023-08-20T12:36:54;4.38;;;2.42;;
11598;SDS011;5855;48.840;9.188;2023-08-20T12:39:21;3.88;;;2.40;;
11598;SDS011;5855;48.840;9.188;2023-08-20T12:41:47;3.50;;;2.30;;
11598;SDS011;5855;48.840;9.188;2023-08-20T12:44:14;2.40;;;2.20;;
11598;SDS011;5855;48.840;9.188;2023-08-20T12:46:41;3.30;;;2.20;;
11598;SDS011;5855;48.840;9.188;2023-08-20T12:49:09;2.53;;;2.22;;
11598;SDS011;5855;48.840;9.188;2023-08-20T12:51:36;4.22;;;2.15;;
11598;SDS011;5855;48.840;9.188;2023-08-20T12:54:03;2.75;;;2.28;;
11598;SDS011;5855;48.840;9.188;2023-08-20T12:56:30;2.72;;;2.45;;
11598;SDS011;5855;48.840;9.188;2023-08-20T12:58:57;2.40;;;2.20;;
11598;SDS011;5855;48.840;9.188;2023-08-20T13:01:24;4.57;;;2.40;;
11598;SDS011;5855;48.840;9.188;2023-08-20T13:03:51;3.17;;;2.30;;
11598;SDS011;5855;48.840;9.188;2023-08-20T13:06:20;2.90;;;2.38;;
11598;SDS011;5855;48.840;9.188;2023-08-20T13:08:48;2.63;;;2.22;;
11598;SDS011;5855;48.840;9.188;2023-08-20T13:11:16;3.13;;;2.10;;
11598;SDS011;5855;48.840;9.188;2023-08-20T13:13:46;3.60;;;2.10;;
11598;SDS011;5855;48.840;9.188;2023-08-20T13:16:13;2.53;;;2.20;;
11598;SDS011;5855;48.840;9.188;2023-08-20T13:18:40;3.35;;;2.17;;
11598;SDS011;5855;48.840;9.188;2023-08-20T13:21:07;3.08;;;2.17;;
11598;SDS011;5855;48.840;9.188;2023-08-20T13:23:36;3.63;;;2.10;;
11598;SDS011;5855;48.840;9.188;2023-08-20T13:26:03;3.50;;;2.40;;
11598;SDS011;5855;48.840;9.188;2023-08-20T13:28:29;4.15;;;2.15;;
11598;SDS011;5855;48.840;9.188;2023-08-20T13:30:56;2.25;;;2.03;;
11598;SDS011;5855;48.840;9.188;2023-08-20T13:33:23;5.63;;;2.60;;
11598;SDS011;5855;48.840;9.188;2023-08-20T13:35:50;3.55;;;2.00;;
11598;SDS011;5855;48.840;9.188;2023-08-20T13:38:17;3.13;;;2.00;;
11598;SDS011;5855;48.840;9.188;2023-08-20T13:40:46;2.72;;;2.10;;
11598;SDS011;5855;48.840;9.188;2023-08-20T13:43:13;4.07;;;2.08;;
11598;SDS011;5855;48.840;9.188;2023-08-20T13:45:40;3.33;;;2.17;;
11598;SDS011;5855;48.840;9.188;2023-08-20T13:48:07;2.13;;;1.77;;
11598;SDS011;5855;48.840;9.188;2023-08-20T13:50:34;3.75;;;2.20;;
11598;SDS011;5855;48.840;9.188;2023-08-20T13:53:01;2.53;;;1.80;;
11598;SDS011;5855;48.840;9.188;2023-08-20T13:55:27;4.38;;;2.22;;
11598;SDS011;5855;48.840;9.188;2023-08-20T13:57:57;3.75;;;2.05;;
11598;SDS011;5855;48.840;9.188;2023-08-20T14:00:24;4.43;;;1.90;;
11598;SDS011;5855;48.840;9.188;2023-08-20T14:02:51;3.55;;;2.00;;
11598;SDS011;5855;48.840;9.188;2023-08-20T14:05:18;3.65;;;1.90;;
11598;SDS011;5855;48.840;9.188;2023-08-20T14:07:45;2.97;;;1.92;;
11598;SDS011;5855;48.840;9.188;2023-08-20T14:10:12;4.50;;;2.10;;
11598;SDS011;5855;48.840;9.188;2023-08-20T14:12:39;3.45;;;2.17;;
11598;SDS011;5855;48.840;9.188;2023-08-20T14:15:08;2.72;;;2.00;;
11598;SDS011;5855;48.840;9.188;2023-08-20T14:17:35;5.10;;;2.13;;
11598;SDS011;5855;48.840;9.188;2023-08-20T14:20:02;3.20;;;2.00;;
11598;SDS011;5855;48.840;9.188;2023-08-20T14:22:30;2.05;;;1.90;;
11598;SDS011;5855;48.840;9.188;2023-08-20T14:24:57;3.58;;;1.77;;
11598;SDS011;5855;48.840;9.188;2023-08-20T14:27:24;2.45;;;1.92;;
11598;SDS011;5855;48.840;9.188;2023-08-20T14:29:50;3.75;;;2.13;;
11598;SDS011;5855;48.840;9.188;2023-08-20T14:32:19;4.47;;;2.28;;
11598;SDS011;5855;48.840;9.188;2023-08-20T14:34:46;3.83;;;2.20;;
11598;SDS011;5855;48.840;9.188;2023-08-20T14:37:12;4.00;;;2.50;;
11598;SDS011;5855;48.840;9.188;2023-08-20T14:39:39;3.92;;;2.13;;
11598;SDS011;5855;48.840;9.188;2023-08-20T14:42:06;3.88;;;2.00;;
11598;SDS011;5855;48.840;9.188;2023-08-20T14:44:33;3.63;;;2.30;;
11598;SDS011;5855;48.840;9.188;2023-08-20T14:47:00;3.25;;;2.10;;
11598;SDS011;5855;48.840;9.188;2023-08-20T14:49:31;2.97;;;2.00;;
11598;SDS011;5855;48.840;9.188;2023-08-20T14:51:57;4.43;;;2.20;;
11598;SDS011;5855;48.840;9.188;2023-08-20T14:54:24;5.43;;;2.10;;
11598;SDS011;5855;48.840;9.188;2023-08-20T14:56:51;2.42;;;2.03;;
11598;SDS011;5855;48.840;9.188;2023-08-20T14:59:18;3.50;;;2.05;;